createdAt,value
2018-03-11T00:00:46.757Z,993.93
2018-03-11T00:01:46.772Z,993.93
2018-03-11T00:02:46.795Z,993.99
2018-03-11T00:03:46.812Z,993.99
2018-03-11T00:04:46.831Z,994.01
2018-03-11T00:05:46.856Z,994.07
2018-03-11T00:06:46.876Z,994.03
2018-03-11T00:07:46.887Z,994.00
2018-03-11T00:08:46.910Z,994.00
2018-03-11T00:09:46.926Z,993.97
2018-03-11T00:10:46.949Z,993.94
2018-03-11T00:11:46.968Z,993.93
2018-03-11T00:12:46.989Z,993.95
2018-03-11T00:13:47.007Z,993.92
2018-03-11T00:14:47.022Z,993.89
2018-03-11T00:15:47.046Z,993.85
2018-03-11T00:16:47.064Z,993.81
2018-03-11T00:17:47.082Z,993.79
2018-03-11T00:18:47.105Z,993.86
2018-03-11T00:19:47.124Z,993.81
2018-03-11T00:20:47.141Z,993.76
2018-03-11T00:21:47.160Z,993.78
2018-03-11T00:22:47.184Z,993.73
2018-03-11T00:23:47.195Z,993.71
2018-03-11T00:24:47.221Z,993.73
2018-03-11T00:25:47.235Z,993.70
2018-03-11T00:26:47.256Z,993.70
2018-03-11T00:27:47.275Z,993.62
2018-03-11T00:28:47.294Z,993.66
2018-03-11T00:29:47.314Z,993.63
2018-03-11T00:30:47.333Z,993.67
2018-03-11T00:31:47.348Z,993.67
2018-03-11T00:32:47.369Z,993.68
2018-03-11T00:33:47.389Z,993.65
2018-03-11T00:34:47.409Z,993.66
2018-03-11T00:35:47.428Z,993.67
2018-03-11T00:36:47.447Z,993.68
2018-03-11T00:37:47.467Z,993.66
2018-03-11T00:38:47.483Z,993.60
2018-03-11T00:39:47.505Z,993.58
2018-03-11T00:40:47.528Z,993.55
2018-03-11T00:41:47.544Z,993.54
2018-03-11T00:42:47.561Z,993.49
2018-03-11T00:43:47.585Z,993.53
2018-03-11T00:44:47.600Z,993.48
2018-03-11T00:45:47.638Z,993.50
2018-03-11T00:46:47.642Z,993.44
2018-03-11T00:47:47.659Z,993.49
2018-03-11T00:48:47.675Z,993.46
2018-03-11T00:49:47.696Z,993.41
2018-03-11T00:50:47.711Z,993.38
2018-03-11T00:51:47.739Z,993.37
2018-03-11T00:52:47.752Z,993.36
2018-03-11T00:53:47.772Z,993.34
2018-03-11T00:54:47.790Z,993.37
2018-03-11T00:55:47.808Z,993.36
2018-03-11T00:56:47.826Z,993.32
2018-03-11T00:57:47.847Z,993.28
2018-03-11T00:58:47.872Z,993.25
2018-03-11T00:59:47.885Z,993.19
2018-03-11T01:00:47.904Z,993.20
2018-03-11T01:01:47.924Z,993.19
2018-03-11T01:02:47.941Z,993.16
2018-03-11T01:03:47.957Z,993.14
2018-03-11T01:04:47.983Z,993.11
2018-03-11T01:05:47.998Z,993.07
2018-03-11T01:06:48.016Z,993.07
2018-03-11T01:07:48.036Z,993.03
2018-03-11T01:08:48.052Z,993.06
2018-03-11T01:09:48.074Z,993.07
2018-03-11T01:10:48.093Z,993.02
2018-03-11T01:11:48.110Z,993.00
2018-03-11T01:12:48.131Z,993.03
2018-03-11T01:13:48.148Z,993.01
2018-03-11T01:14:48.168Z,993.03
2018-03-11T01:15:48.188Z,992.99
2018-03-11T01:16:48.205Z,992.96
2018-03-11T01:17:48.224Z,992.98
2018-03-11T01:18:48.242Z,992.95
2018-03-11T01:19:48.259Z,992.97
2018-03-11T01:20:48.279Z,992.97
2018-03-11T01:21:48.296Z,992.94
2018-03-11T01:22:48.316Z,992.97
2018-03-11T01:23:48.334Z,992.91
2018-03-11T01:24:48.353Z,992.93
2018-03-11T01:25:48.374Z,992.88
2018-03-11T01:26:48.390Z,992.87
2018-03-11T01:27:48.410Z,992.87
2018-03-11T01:28:48.426Z,992.80
2018-03-11T01:29:48.447Z,992.77
2018-03-11T01:30:48.464Z,992.72
2018-03-11T01:31:48.484Z,992.70
2018-03-11T01:32:48.504Z,992.67
2018-03-11T01:33:48.526Z,992.64
2018-03-11T01:34:48.537Z,992.64
2018-03-11T01:35:48.556Z,992.61
2018-03-11T01:36:48.576Z,992.61
2018-03-11T01:37:48.595Z,992.61
2018-03-11T01:38:48.613Z,992.53
2018-03-11T01:39:48.635Z,992.54
2018-03-11T01:40:48.652Z,992.59
2018-03-11T01:41:48.671Z,992.55
2018-03-11T01:42:48.692Z,992.53
2018-03-11T01:43:48.702Z,992.51
2018-03-11T01:44:48.725Z,992.51
2018-03-11T01:45:48.742Z,992.50
2018-03-11T01:46:48.767Z,992.47
2018-03-11T01:47:48.777Z,992.49
2018-03-11T01:48:48.799Z,992.44
2018-03-11T01:49:48.816Z,992.45
2018-03-11T01:50:48.833Z,992.43
2018-03-11T01:51:48.851Z,992.46
2018-03-11T01:52:48.871Z,992.41
2018-03-11T01:53:48.895Z,992.44
2018-03-11T01:54:48.907Z,992.44
2018-03-11T01:55:48.929Z,992.42
2018-03-11T01:56:48.944Z,992.40
2018-03-11T01:57:48.969Z,992.33
2018-03-11T01:58:48.981Z,992.32
2018-03-11T01:59:49.003Z,992.26
2018-03-11T02:00:49.018Z,992.24
2018-03-11T02:01:49.037Z,992.18
2018-03-11T02:02:49.051Z,992.20
2018-03-11T02:03:49.078Z,992.17
2018-03-11T02:04:49.092Z,992.13
2018-03-11T02:05:49.112Z,992.09
2018-03-11T02:06:49.128Z,992.07
2018-03-11T02:07:49.144Z,992.06
2018-03-11T02:08:49.164Z,992.04
2018-03-11T02:09:49.184Z,992.06
2018-03-11T02:10:49.203Z,992.06
2018-03-11T02:11:49.221Z,992.01
2018-03-11T02:12:49.242Z,992.05
2018-03-11T02:13:49.260Z,992.02
2018-03-11T02:14:49.277Z,991.97
2018-03-11T02:15:49.293Z,991.98
2018-03-11T02:16:49.313Z,991.95
2018-03-11T02:17:49.330Z,991.91
2018-03-11T02:18:49.357Z,991.89
2018-03-11T02:19:49.366Z,991.90
2018-03-11T02:20:49.390Z,991.88
2018-03-11T02:21:49.407Z,991.92
2018-03-11T02:22:49.424Z,991.84
2018-03-11T02:23:49.448Z,991.87
2018-03-11T02:24:49.457Z,991.83
2018-03-11T02:25:49.478Z,991.80
2018-03-11T02:26:49.497Z,991.77
2018-03-11T02:27:49.516Z,991.77
2018-03-11T02:28:49.535Z,991.76
2018-03-11T02:29:49.553Z,991.72
2018-03-11T02:30:49.571Z,991.73
2018-03-11T02:31:49.594Z,991.69
2018-03-11T02:32:49.608Z,991.65
2018-03-11T02:33:49.630Z,991.63
2018-03-11T02:34:49.645Z,991.61
2018-03-11T02:35:49.664Z,991.54
2018-03-11T02:36:49.684Z,991.61
2018-03-11T02:37:49.702Z,991.53
2018-03-11T02:38:49.719Z,991.51
2018-03-11T02:39:49.735Z,991.49
2018-03-11T02:40:49.755Z,991.46
2018-03-11T02:41:49.775Z,991.44
2018-03-11T02:42:49.792Z,991.40
2018-03-11T02:43:49.819Z,991.39
2018-03-11T02:44:49.826Z,991.43
2018-03-11T02:45:49.845Z,991.37
2018-03-11T02:46:49.862Z,991.39
2018-03-11T02:47:49.884Z,991.34
2018-03-11T02:48:49.897Z,991.39
2018-03-11T02:49:49.919Z,991.41
2018-03-11T02:50:49.938Z,991.36
2018-03-11T02:51:49.954Z,991.37
2018-03-11T02:52:49.975Z,991.40
2018-03-11T02:53:49.991Z,991.42
2018-03-11T02:54:50.008Z,991.37
2018-03-11T02:55:50.026Z,991.42
2018-03-11T02:56:50.045Z,991.38
2018-03-11T02:57:50.060Z,991.37
2018-03-11T02:58:50.082Z,991.34
2018-03-11T02:59:50.098Z,991.29
2018-03-11T03:00:50.115Z,991.31
2018-03-11T03:01:50.138Z,991.29
2018-03-11T03:02:50.154Z,991.30
2018-03-11T03:03:50.170Z,991.29
2018-03-11T03:04:50.188Z,991.31
2018-03-11T03:05:50.204Z,991.26
2018-03-11T05:06:09.020Z,989.54
2018-03-11T05:07:09.004Z,989.58
2018-03-11T05:09:01.914Z,989.53
2018-03-11T05:10:01.925Z,989.50
2018-03-11T05:11:54.867Z,989.38
2018-03-11T05:12:54.838Z,989.19
2018-03-11T05:14:47.796Z,989.12
2018-03-11T05:15:47.766Z,989.10
2018-03-11T05:17:40.704Z,989.10
2018-03-11T05:18:40.693Z,989.09
2018-03-11T05:20:33.634Z,989.14
2018-03-11T05:21:33.624Z,989.18
2018-03-11T05:23:26.543Z,989.19
2018-03-11T05:24:26.556Z,989.22
2018-03-11T05:26:19.495Z,989.17
2018-03-11T05:27:19.482Z,989.15
2018-03-11T05:29:12.409Z,989.21
2018-03-11T05:30:12.414Z,989.13
2018-03-11T05:32:05.362Z,989.12
2018-03-11T05:33:05.346Z,989.10
2018-03-11T05:34:58.269Z,989.02
2018-03-11T05:35:58.279Z,989.01
2018-03-11T05:37:51.223Z,989.06
2018-03-11T05:38:51.214Z,989.02
2018-03-11T05:40:44.161Z,989.02
2018-03-11T05:41:44.152Z,989.03
2018-03-11T05:43:37.077Z,988.95
2018-03-11T05:44:37.089Z,988.93
2018-03-11T05:46:30.027Z,988.92
2018-03-11T05:47:30.017Z,988.90
2018-03-11T05:49:22.946Z,988.76
2018-03-11T05:50:22.965Z,988.70
2018-03-11T05:52:15.901Z,988.74
2018-03-11T05:53:15.892Z,988.67
2018-03-11T05:54:15.924Z,988.71
2018-03-11T05:55:15.928Z,988.69
2018-03-11T05:56:15.950Z,988.71
2018-03-11T05:57:15.966Z,988.70
2018-03-11T05:58:15.985Z,988.79
2018-03-11T05:59:16.000Z,988.77
2018-03-11T06:00:16.020Z,988.79
2018-03-11T06:01:16.034Z,988.77
2018-03-11T06:02:16.053Z,988.81
2018-03-11T06:03:16.073Z,988.76
2018-03-11T06:04:16.091Z,988.75
2018-03-11T06:05:16.108Z,988.81
2018-03-11T06:06:16.127Z,988.79
2018-03-11T06:07:16.144Z,988.76
2018-03-11T06:08:16.162Z,988.83
2018-03-11T06:09:16.185Z,988.82
2018-03-11T06:10:16.202Z,988.84
2018-03-11T06:11:16.219Z,988.75
2018-03-11T06:12:16.234Z,988.81
2018-03-11T06:13:16.255Z,988.81
2018-03-11T06:14:16.270Z,988.75
2018-03-11T06:15:16.290Z,988.73
2018-03-11T06:16:16.309Z,988.70
2018-03-11T06:17:16.331Z,988.75
2018-03-11T06:18:16.344Z,988.73
2018-03-11T06:19:16.365Z,988.68
2018-03-11T06:20:16.390Z,988.72
2018-03-11T06:21:16.399Z,988.64
2018-03-11T06:22:16.418Z,988.66
2018-03-11T06:23:16.435Z,988.61
2018-03-11T06:24:16.454Z,988.57
2018-03-11T06:25:16.475Z,988.54
2018-03-11T06:26:16.490Z,988.49
2018-03-11T06:27:16.511Z,988.39
2018-03-11T06:28:16.527Z,988.39
2018-03-11T06:29:16.548Z,988.35
2018-03-11T06:30:16.569Z,988.36
2018-03-11T06:31:16.579Z,988.33
2018-03-11T06:32:16.603Z,988.28
2018-03-11T06:33:16.622Z,988.21
2018-03-11T06:34:16.641Z,988.18
2018-03-11T06:35:16.663Z,988.14
2018-03-11T06:36:16.677Z,988.18
2018-03-11T06:37:16.693Z,988.17
2018-03-11T06:38:16.718Z,988.22
2018-03-11T06:39:16.727Z,988.19
2018-03-11T06:40:16.749Z,988.26
2018-03-11T06:41:16.769Z,988.15
2018-03-11T06:42:16.786Z,988.18
2018-03-11T06:43:16.802Z,988.19
2018-03-11T06:44:16.828Z,988.20
2018-03-11T06:45:16.837Z,988.21
2018-03-11T06:46:16.861Z,988.23
2018-03-11T06:47:16.879Z,988.22
2018-03-11T06:48:16.897Z,988.21
2018-03-11T06:49:16.917Z,988.28
2018-03-11T06:50:16.937Z,988.19
2018-03-11T06:51:16.950Z,988.14
2018-03-11T06:52:16.975Z,988.14
2018-03-11T06:53:16.989Z,988.12
2018-03-11T06:54:17.009Z,988.15
2018-03-11T06:55:17.027Z,988.12
2018-03-11T06:56:17.044Z,988.05
2018-03-11T06:57:17.068Z,988.02
2018-03-11T06:58:17.080Z,988.00
2018-03-11T06:59:17.105Z,987.99
2018-03-11T07:00:17.118Z,987.96
2018-03-11T07:01:17.137Z,987.92
2018-03-11T07:02:17.155Z,987.93
2018-03-11T07:03:17.180Z,987.87
2018-03-11T07:04:17.198Z,987.81
2018-03-11T07:05:17.229Z,987.89
2018-03-11T07:06:17.228Z,987.90
2018-03-11T07:07:17.299Z,987.89
2018-03-11T07:08:17.269Z,987.87
2018-03-11T07:09:17.287Z,987.92
2018-03-11T07:10:17.306Z,987.87
2018-03-11T07:11:17.323Z,987.91
2018-03-11T07:12:17.344Z,987.86
2018-03-11T07:13:17.360Z,987.81
2018-03-11T07:14:17.385Z,987.83
2018-03-11T07:15:17.399Z,987.86
2018-03-11T07:16:17.459Z,987.84
2018-03-11T07:17:17.438Z,987.85
2018-03-11T07:18:17.458Z,987.98
2018-03-11T07:19:17.474Z,987.94
2018-03-11T07:20:17.491Z,987.86
2018-03-11T07:21:17.512Z,987.86
2018-03-11T07:22:17.532Z,987.79
2018-03-11T07:23:17.549Z,987.75
2018-03-11T07:24:17.597Z,987.72
2018-03-11T07:25:17.590Z,987.68
2018-03-11T07:26:17.611Z,987.82
2018-03-11T07:27:17.626Z,987.81
2018-03-11T07:28:17.646Z,987.83
2018-03-11T07:29:17.669Z,987.83
2018-03-11T07:30:17.699Z,987.84
2018-03-11T07:31:17.708Z,987.92
2018-03-11T07:32:17.722Z,987.92
2018-03-11T07:33:17.743Z,987.96
2018-03-11T07:34:17.760Z,987.92
2018-03-11T07:35:17.777Z,987.90
2018-03-11T07:36:17.801Z,987.95
2018-03-11T07:37:17.817Z,988.02
2018-03-11T07:38:17.845Z,988.03
2018-03-11T07:39:17.858Z,988.03
2018-03-11T07:40:17.877Z,988.05
2018-03-11T07:41:17.897Z,988.02
2018-03-11T07:42:17.920Z,988.00
2018-03-11T07:43:17.936Z,988.02
2018-03-11T07:44:17.958Z,987.99
2018-03-11T07:45:17.975Z,988.03
2018-03-11T07:46:18.001Z,988.05
2018-03-11T07:47:18.015Z,988.09
2018-03-11T07:48:18.036Z,988.06
2018-03-11T07:49:18.110Z,988.09
2018-03-11T07:50:18.074Z,988.03
2018-03-11T07:51:18.090Z,988.04
2018-03-11T07:52:18.112Z,988.05
2018-03-11T07:53:18.131Z,988.07
2018-03-11T07:54:18.153Z,988.06
2018-03-11T07:55:18.172Z,988.05
2018-03-11T07:56:18.195Z,988.06
2018-03-11T07:57:18.212Z,988.04
2018-03-11T07:58:18.229Z,988.05
2018-03-11T07:59:18.249Z,988.04
2018-03-11T08:00:18.270Z,988.04
2018-03-11T08:01:18.293Z,988.10
2018-03-11T08:02:18.311Z,988.06
2018-03-11T08:03:18.327Z,988.12
2018-03-11T08:04:18.349Z,988.14
2018-03-11T08:05:18.375Z,988.17
2018-03-11T08:06:18.389Z,988.19
2018-03-11T08:07:18.408Z,988.15
2018-03-11T08:08:18.426Z,988.20
2018-03-11T08:09:18.448Z,988.23
2018-03-11T08:10:18.466Z,988.16
2018-03-11T08:11:18.490Z,988.16
2018-03-11T08:12:18.506Z,988.19
2018-03-11T08:13:18.526Z,988.14
2018-03-11T08:14:18.545Z,988.12
2018-03-11T08:15:18.570Z,988.17
2018-03-11T08:16:18.585Z,988.20
2018-03-11T08:17:18.608Z,988.25
2018-03-11T08:18:18.626Z,988.20
2018-03-11T08:19:18.643Z,988.18
2018-03-11T08:20:18.716Z,988.20
2018-03-11T08:21:18.679Z,988.16
2018-03-11T08:22:18.699Z,988.20
2018-03-11T08:23:18.718Z,988.18
2018-03-11T08:24:18.744Z,988.19
2018-03-11T08:25:18.761Z,988.20
2018-03-11T08:26:18.779Z,988.20
2018-03-11T08:27:18.796Z,988.23
2018-03-11T08:28:18.817Z,988.17
2018-03-11T08:29:18.837Z,988.19
2018-03-11T08:30:18.860Z,988.15
2018-03-11T08:31:18.875Z,988.15
2018-03-11T08:32:18.905Z,988.13
2018-03-11T08:33:18.912Z,988.08
2018-03-11T08:34:18.936Z,988.09
2018-03-11T08:35:18.954Z,988.12
2018-03-11T08:36:18.973Z,988.14
2018-03-11T08:37:18.991Z,988.17
2018-03-11T08:38:19.011Z,988.11
2018-03-11T08:39:19.029Z,988.10
2018-03-11T08:40:19.051Z,988.16
2018-03-11T08:41:19.069Z,988.22
2018-03-11T08:42:19.088Z,988.19
2018-03-11T08:43:19.108Z,988.17
2018-03-11T08:44:19.128Z,988.18
2018-03-11T08:45:19.144Z,988.21
2018-03-11T08:46:19.166Z,988.19
2018-03-11T08:47:19.184Z,988.09
2018-03-11T08:48:19.256Z,988.12
2018-03-11T08:49:19.223Z,988.16
2018-03-11T08:50:19.242Z,988.21
2018-03-11T08:51:19.266Z,988.19
2018-03-11T08:52:19.281Z,988.24
2018-03-11T08:53:19.301Z,988.19
2018-03-11T08:54:19.321Z,988.17
2018-03-11T08:55:19.337Z,988.17
2018-03-11T08:56:19.358Z,988.17
2018-03-11T08:57:19.377Z,988.20
2018-03-11T08:58:19.396Z,988.21
2018-03-11T08:59:19.442Z,988.21
2018-03-11T09:00:19.439Z,988.25
2018-03-11T09:01:19.453Z,988.22
2018-03-11T09:02:19.474Z,988.26
2018-03-11T09:03:19.490Z,988.29
2018-03-11T09:04:19.513Z,988.25
2018-03-11T09:05:19.533Z,988.27
2018-03-11T09:06:19.551Z,988.24
2018-03-11T09:07:19.573Z,988.21
2018-03-11T09:08:19.589Z,988.22
2018-03-11T09:09:19.610Z,988.17
2018-03-11T09:10:19.630Z,988.26
2018-03-11T09:11:19.649Z,988.16
2018-03-11T09:12:19.667Z,988.16
2018-03-11T09:13:19.687Z,988.17
2018-03-11T09:14:19.713Z,988.18
2018-03-11T09:15:19.727Z,988.15
2018-03-11T09:16:19.749Z,988.15
2018-03-11T09:17:19.773Z,988.17
2018-03-11T09:18:19.784Z,988.15
2018-03-11T09:19:19.804Z,988.16
2018-03-11T09:20:19.825Z,988.12
2018-03-11T09:21:19.844Z,988.21
2018-03-11T09:22:19.862Z,988.20
2018-03-11T09:23:19.880Z,988.22
2018-03-11T09:24:19.899Z,988.23
2018-03-11T09:25:19.922Z,988.23
2018-03-11T09:26:19.944Z,988.21
2018-03-11T09:27:19.960Z,988.16
2018-03-11T09:28:19.980Z,988.11
2018-03-11T09:29:20.003Z,988.19
2018-03-11T09:30:20.016Z,988.16
2018-03-11T09:31:20.034Z,988.17
2018-03-11T09:32:20.058Z,988.14
2018-03-11T09:33:20.078Z,988.17
2018-03-11T09:34:20.094Z,988.15
2018-03-11T09:35:20.123Z,988.13
2018-03-11T09:36:20.134Z,988.09
2018-03-11T09:37:20.156Z,988.12
2018-03-11T09:38:20.175Z,988.03
2018-03-11T09:39:20.194Z,988.10
2018-03-11T09:40:20.216Z,988.07
2018-03-11T09:41:20.232Z,988.05
2018-03-11T09:42:20.251Z,987.98
2018-03-11T09:43:20.280Z,987.97
2018-03-11T09:44:20.292Z,987.91
2018-03-11T09:45:20.308Z,988.02
2018-03-11T09:46:20.330Z,987.95
2018-03-11T09:47:20.349Z,988.03
2018-03-11T09:48:20.368Z,988.01
2018-03-11T09:49:20.389Z,988.01
2018-03-11T09:50:20.407Z,988.03
2018-03-11T09:51:20.429Z,987.97
2018-03-11T09:52:20.447Z,988.01
2018-03-11T09:53:20.470Z,988.02
2018-03-11T09:54:20.486Z,988.05
2018-03-11T09:55:20.504Z,988.03
2018-03-11T09:56:20.531Z,988.02
2018-03-11T09:57:20.547Z,988.00
2018-03-11T09:58:20.569Z,987.98
2018-03-11T09:59:20.584Z,987.95
2018-03-11T10:00:20.602Z,987.96
2018-03-11T10:01:20.628Z,987.92
2018-03-11T10:02:20.643Z,987.93
2018-03-11T10:03:20.662Z,987.95
2018-03-11T10:04:20.683Z,987.91
2018-03-11T10:05:20.701Z,987.96
2018-03-11T10:06:20.725Z,987.96
2018-03-11T10:07:20.744Z,988.01
2018-03-11T10:08:20.769Z,988.01
2018-03-11T10:09:20.784Z,987.95
2018-03-11T10:10:20.805Z,988.01
2018-03-11T10:11:20.824Z,988.03
2018-03-11T10:12:20.848Z,988.06
2018-03-11T10:13:20.863Z,988.06
2018-03-11T10:14:20.893Z,988.07
2018-03-11T10:15:20.901Z,988.09
2018-03-11T10:16:20.973Z,988.16
2018-03-11T10:17:20.942Z,988.15
2018-03-11T10:18:20.960Z,988.16
2018-03-11T10:19:20.983Z,988.19
2018-03-11T10:20:21.002Z,988.16
2018-03-11T10:21:21.023Z,988.17
2018-03-11T10:22:21.048Z,988.19
2018-03-11T10:23:21.064Z,988.13
2018-03-11T10:24:21.082Z,988.16
2018-03-11T10:25:21.103Z,988.21
2018-03-11T10:26:21.123Z,988.20
2018-03-11T10:27:21.144Z,988.21
2018-03-11T10:28:21.167Z,988.18
2018-03-11T10:29:21.189Z,988.18
2018-03-11T10:30:21.207Z,988.18
2018-03-11T10:31:21.225Z,988.17
2018-03-11T10:32:21.244Z,988.20
2018-03-11T10:33:21.269Z,988.21
2018-03-11T10:34:21.291Z,988.21
2018-03-11T10:35:21.308Z,988.27
2018-03-11T10:36:21.334Z,988.25
2018-03-11T10:37:21.348Z,988.25
2018-03-11T10:38:21.420Z,988.24
2018-03-11T10:39:21.389Z,988.24
2018-03-11T10:40:21.410Z,988.22
2018-03-11T10:41:21.430Z,988.27
2018-03-11T10:42:21.451Z,988.29
2018-03-11T10:43:21.476Z,988.29
2018-03-11T10:44:21.495Z,988.22
2018-03-11T10:45:21.511Z,988.24
2018-03-11T10:46:21.534Z,988.27
2018-03-11T10:47:21.553Z,988.30
2018-03-11T10:48:21.575Z,988.29
2018-03-11T10:49:21.597Z,988.29
2018-03-11T10:50:21.614Z,988.30
2018-03-11T10:51:21.636Z,988.30
2018-03-11T10:52:21.663Z,988.29
2018-03-11T10:53:21.684Z,988.33
2018-03-11T10:54:21.701Z,988.36
2018-03-11T10:55:21.722Z,988.34
2018-03-11T10:56:21.743Z,988.33
2018-03-11T10:57:21.761Z,988.34
2018-03-11T10:58:21.787Z,988.29
2018-03-11T10:59:21.805Z,988.36
2018-03-11T11:00:21.830Z,988.31
2018-03-11T11:01:21.849Z,988.25
2018-03-11T11:02:21.871Z,988.26
2018-03-11T11:03:21.890Z,988.25
2018-03-11T11:04:21.916Z,988.25
2018-03-11T11:05:21.942Z,988.26
2018-03-11T11:06:21.962Z,988.22
2018-03-11T11:07:21.982Z,988.27
2018-03-11T11:08:22.053Z,988.35
2018-03-11T11:09:22.023Z,988.32
2018-03-11T11:10:22.047Z,988.33
2018-03-11T11:11:22.064Z,988.27
2018-03-11T11:12:22.095Z,988.31
2018-03-11T11:13:22.115Z,988.32
2018-03-11T11:14:22.130Z,988.32
2018-03-11T11:15:22.152Z,988.34
2018-03-11T11:16:22.173Z,988.35
2018-03-11T11:17:22.194Z,988.41
2018-03-11T11:18:22.220Z,988.39
2018-03-11T11:19:22.294Z,988.35
2018-03-11T11:20:22.263Z,988.39
2018-03-11T11:21:22.282Z,988.34
2018-03-11T11:22:22.306Z,988.34
2018-03-11T11:23:22.327Z,988.34
2018-03-11T11:24:22.349Z,988.34
2018-03-11T11:25:22.368Z,988.37
2018-03-11T11:26:22.392Z,988.35
2018-03-11T11:27:22.419Z,988.30
2018-03-11T11:28:22.435Z,988.36
2018-03-11T11:29:22.460Z,988.42
2018-03-11T11:30:22.487Z,988.40
2018-03-11T11:31:22.506Z,988.34
2018-03-11T11:32:22.528Z,988.33
2018-03-11T11:33:22.548Z,988.43
2018-03-11T11:34:22.569Z,988.41
2018-03-11T11:35:22.590Z,988.45
2018-03-11T11:36:22.612Z,988.43
2018-03-11T11:37:22.636Z,988.42
2018-03-11T11:38:22.659Z,988.46
2018-03-11T11:39:22.679Z,988.42
2018-03-11T11:40:22.705Z,988.44
2018-03-11T11:41:22.725Z,988.48
2018-03-11T11:42:22.747Z,988.49
2018-03-11T11:43:22.771Z,988.50
2018-03-11T11:44:22.795Z,988.49
2018-03-11T11:45:22.822Z,988.48
2018-03-11T11:46:22.843Z,988.42
2018-03-11T11:47:22.861Z,988.42
2018-03-11T11:48:22.886Z,988.42
2018-03-11T11:49:22.910Z,988.43
2018-03-11T11:50:22.938Z,988.39
2018-03-11T11:51:22.956Z,988.42
2018-03-11T11:52:22.980Z,988.47
2018-03-11T11:53:22.999Z,988.45
2018-03-11T11:54:23.024Z,988.42
2018-03-11T11:55:23.046Z,988.42
2018-03-11T11:56:23.069Z,988.43
2018-03-11T11:57:23.094Z,988.38
2018-03-11T11:58:23.114Z,988.43
2018-03-11T11:59:23.141Z,988.34
2018-03-11T12:00:23.160Z,988.36
2018-03-11T12:01:23.183Z,988.39
2018-03-11T12:02:23.208Z,988.30
2018-03-11T12:03:23.230Z,988.35
2018-03-11T12:04:23.255Z,988.38
2018-03-11T12:05:23.320Z,988.42
2018-03-11T12:06:23.305Z,988.36
2018-03-11T12:07:23.324Z,988.31
2018-03-11T12:08:23.345Z,988.31
2018-03-11T12:09:23.370Z,988.34
2018-03-11T12:10:23.394Z,988.33
2018-03-11T12:11:23.416Z,988.31
2018-03-11T12:12:23.447Z,988.29
2018-03-11T12:13:23.460Z,988.29
2018-03-11T12:14:23.486Z,988.23
2018-03-11T12:15:23.510Z,988.22
2018-03-11T12:16:23.531Z,988.23
2018-03-11T12:17:23.600Z,988.21
2018-03-11T12:18:23.589Z,988.19
2018-03-11T12:19:23.600Z,988.18
2018-03-11T12:20:23.627Z,988.15
2018-03-11T12:21:23.652Z,988.11
2018-03-11T12:22:23.675Z,988.05
2018-03-11T12:23:23.698Z,988.07
2018-03-11T12:24:23.724Z,988.07
2018-03-11T12:25:23.740Z,988.08
2018-03-11T12:26:23.764Z,988.10
2018-03-11T12:27:23.788Z,988.06
2018-03-11T12:28:23.810Z,988.01
2018-03-11T12:29:23.838Z,988.05
2018-03-11T12:30:23.861Z,988.04
2018-03-11T12:31:23.882Z,988.04
2018-03-11T12:32:23.904Z,988.02
2018-03-11T12:33:23.931Z,987.98
2018-03-11T12:34:24.026Z,988.00
2018-03-11T12:35:23.972Z,988.00
2018-03-11T12:36:24.002Z,987.98
2018-03-11T12:37:24.025Z,988.02
2018-03-11T12:38:24.044Z,988.00
2018-03-11T12:39:24.070Z,988.00
2018-03-11T12:40:24.094Z,987.99
2018-03-11T12:41:24.116Z,987.98
2018-03-11T12:42:24.140Z,987.98
2018-03-11T12:43:24.161Z,987.93
2018-03-11T12:44:24.187Z,987.96
2018-03-11T12:45:24.210Z,987.96
2018-03-11T12:46:24.232Z,987.95
2018-03-11T12:47:24.256Z,987.96
2018-03-11T12:48:24.280Z,987.96
2018-03-11T12:49:24.304Z,987.94
2018-03-11T12:50:24.327Z,987.95
2018-03-11T12:51:24.350Z,987.96
2018-03-11T12:52:24.372Z,987.98
2018-03-11T12:53:24.399Z,987.95
2018-03-11T12:54:24.421Z,987.92
2018-03-11T12:55:24.442Z,987.95
2018-03-11T12:56:24.467Z,987.90
2018-03-11T12:57:24.491Z,987.94
2018-03-11T12:58:24.514Z,987.92
2018-03-11T12:59:24.543Z,987.94
2018-03-11T13:00:24.560Z,987.90
2018-03-11T13:01:24.588Z,987.90
2018-03-11T13:02:24.609Z,987.93
2018-03-11T13:03:24.629Z,987.89
2018-03-11T13:04:24.653Z,987.90
2018-03-11T13:05:24.677Z,987.90
2018-03-11T13:06:24.703Z,987.91
2018-03-11T13:07:24.725Z,987.88
2018-03-11T13:08:24.749Z,987.85
2018-03-11T13:09:24.773Z,987.88
2018-03-11T13:10:24.797Z,987.90
2018-03-11T13:11:24.820Z,987.92
2018-03-11T13:12:24.843Z,987.96
2018-03-11T13:13:24.874Z,987.93
2018-03-11T13:14:24.888Z,987.88
2018-03-11T13:15:24.909Z,987.90
2018-03-11T13:16:24.937Z,987.90
2018-03-11T13:17:24.960Z,987.88
2018-03-11T13:18:24.981Z,987.84
2018-03-11T13:19:25.010Z,987.79
2018-03-11T13:20:25.034Z,987.82
2018-03-11T13:21:25.052Z,987.75
2018-03-11T13:22:25.076Z,987.75
2018-03-11T13:23:25.100Z,987.69
2018-03-11T13:24:25.122Z,987.70
2018-03-11T13:25:25.151Z,987.71
2018-03-11T13:26:25.173Z,987.65
2018-03-11T13:27:25.193Z,987.61
2018-03-11T13:28:25.219Z,987.59
2018-03-11T13:29:25.244Z,987.57
2018-03-11T13:30:25.264Z,987.56
2018-03-11T13:31:25.291Z,987.51
2018-03-11T13:32:25.316Z,987.49
2018-03-11T13:33:25.335Z,987.46
2018-03-11T13:34:25.360Z,987.48
2018-03-11T13:35:25.387Z,987.47
2018-03-11T13:36:25.411Z,987.46
2018-03-11T13:37:25.431Z,987.41
2018-03-11T13:38:25.492Z,987.45
2018-03-11T13:39:25.502Z,987.38
2018-03-11T13:40:25.500Z,987.32
2018-03-11T13:41:25.523Z,987.40
2018-03-11T13:42:25.552Z,987.38
2018-03-11T13:43:25.575Z,987.36
2018-03-11T13:44:25.595Z,987.42
2018-03-11T13:45:25.616Z,987.48
2018-03-11T13:46:25.644Z,987.47
2018-03-11T13:47:25.666Z,987.46
2018-03-11T13:48:25.691Z,987.52
2018-03-11T13:49:25.754Z,987.45
2018-03-11T13:50:25.736Z,987.50
2018-03-11T13:51:25.758Z,987.47
2018-03-11T13:52:25.783Z,987.47
2018-03-11T13:53:25.807Z,987.44
2018-03-11T13:54:25.830Z,987.44
2018-03-11T13:55:25.854Z,987.43
2018-03-11T13:56:25.885Z,987.49
2018-03-11T13:57:25.901Z,987.52
2018-03-11T13:58:25.927Z,987.49
2018-03-11T13:59:25.947Z,987.48
2018-03-11T14:00:25.972Z,987.56
2018-03-11T14:01:25.992Z,987.54
2018-03-11T14:02:26.020Z,987.53
2018-03-11T14:03:26.043Z,987.59
2018-03-11T14:04:26.083Z,987.56
2018-03-11T14:05:26.089Z,987.63
2018-03-11T14:06:26.112Z,987.59
2018-03-11T14:07:26.139Z,987.60
2018-03-11T14:08:26.159Z,987.57
2018-03-11T14:09:26.184Z,987.53
2018-03-11T14:10:26.208Z,987.54
2018-03-11T14:11:26.230Z,987.51
2018-03-11T14:12:26.260Z,987.47
2018-03-11T14:13:26.278Z,987.56
2018-03-11T14:14:26.303Z,987.47
2018-03-11T14:15:26.326Z,987.52
2018-03-11T14:16:26.352Z,987.53
2018-03-11T14:17:26.373Z,987.43
2018-03-11T14:18:26.395Z,987.48
2018-03-11T14:19:26.418Z,987.50
2018-03-11T14:20:26.441Z,987.48
2018-03-11T14:21:26.467Z,987.52
2018-03-11T14:22:26.492Z,987.61
2018-03-11T14:23:26.515Z,987.62
2018-03-11T14:24:26.539Z,987.68
2018-03-11T14:25:26.560Z,987.63
2018-03-11T14:26:26.584Z,987.59
2018-03-11T14:27:26.608Z,987.63
2018-03-11T14:28:26.633Z,987.66
2018-03-11T14:29:26.656Z,987.66
2018-03-11T14:30:26.677Z,987.65
2018-03-11T14:31:26.702Z,987.65
2018-03-11T14:32:26.727Z,987.69
2018-03-11T14:33:26.748Z,987.62
2018-03-11T14:34:26.775Z,987.67
2018-03-11T14:35:26.795Z,987.64
2018-03-11T14:36:26.821Z,987.66
2018-03-11T14:37:26.842Z,987.62
2018-03-11T14:38:26.864Z,987.60
2018-03-11T14:39:26.892Z,987.61
2018-03-11T14:40:26.915Z,987.53
2018-03-11T14:41:26.943Z,987.50
2018-03-11T14:42:26.971Z,987.52